createdAt,value
2019-03-19T00:00:09.921Z,35
2019-03-19T00:01:10.040Z,34.700001
2019-03-19T00:02:10.140Z,36.099998
2019-03-19T00:03:10.238Z,35.599998
2019-03-19T00:04:10.368Z,28.200001
2019-03-19T00:05:10.472Z,32.799999
2019-03-19T00:06:10.562Z,29.1
2019-03-19T00:07:10.669Z,38.799999
2019-03-19T00:08:10.760Z,31.200001
2019-03-19T00:09:10.835Z,28
2019-03-19T00:10:10.927Z,34.299999
2019-03-19T00:11:11.032Z,30.4
2019-03-19T00:12:11.055Z,27.4
2019-03-19T00:13:11.050Z,30.299999
2019-03-19T00:14:11.220Z,26.6
2019-03-19T00:15:11.238Z,30.200001
2019-03-19T00:16:11.217Z,33
2019-03-19T00:17:11.220Z,27.799999
2019-03-19T00:18:11.316Z,29
2019-03-19T00:19:11.387Z,30.799999
2019-03-19T00:20:11.432Z,31.6
2019-03-19T00:21:11.470Z,25.4
2019-03-19T00:22:11.539Z,25.6
2019-03-19T00:23:11.629Z,27.5
2019-03-19T00:24:11.776Z,35
2019-03-19T00:25:11.870Z,30.200001
2019-03-19T00:26:11.886Z,27.6
2019-03-19T00:27:12.003Z,31.4
2019-03-19T00:28:12.080Z,29
2019-03-19T00:29:12.254Z,28.9
2019-03-19T00:30:12.339Z,24.200001
2019-03-19T00:31:12.432Z,31.299999
2019-03-19T00:32:12.500Z,42.099998
2019-03-19T00:33:12.624Z,34.099998
2019-03-19T00:34:12.662Z,27.700001
2019-03-19T00:35:12.715Z,32.400002
2019-03-19T00:36:12.772Z,29.299999
2019-03-19T00:37:12.807Z,33
2019-03-19T00:38:12.883Z,28.4
2019-03-19T00:39:12.978Z,25.9
2019-03-19T00:40:13.003Z,25.5
2019-03-19T00:41:13.088Z,22
2019-03-19T00:42:13.121Z,20.6
2019-03-19T00:43:13.182Z,27.9
2019-03-19T00:44:13.264Z,25.9
2019-03-19T00:45:13.314Z,25.700001
2019-03-19T00:46:13.353Z,29.299999
2019-03-19T00:47:13.395Z,30.299999
2019-03-19T00:48:13.434Z,26.200001
2019-03-19T00:49:13.524Z,32.299999
2019-03-19T00:50:13.572Z,31.4
2019-03-19T00:51:13.617Z,28.799999
2019-03-19T00:52:13.668Z,34.200001
2019-03-19T00:53:13.748Z,36.200001
2019-03-19T00:54:13.914Z,38.099998
2019-03-19T00:55:13.868Z,37.200001
2019-03-19T00:56:13.967Z,34.299999
2019-03-19T00:57:14.075Z,41.900002
2019-03-19T00:58:14.175Z,29.9
2019-03-19T00:59:14.239Z,32.900002
2019-03-19T01:00:15.336Z,34.900002
2019-03-19T01:01:14.454Z,33.5
2019-03-19T01:02:14.507Z,28.700001
2019-03-19T01:03:14.543Z,28.9
2019-03-19T01:04:14.609Z,32.299999
2019-03-19T01:05:14.631Z,31.6
2019-03-19T01:06:14.666Z,26.6
2019-03-19T01:07:14.707Z,30.9
2019-03-19T01:08:14.774Z,28.200001
2019-03-19T01:09:14.969Z,33.400002
2019-03-19T01:10:17.110Z,30.799999
2019-03-19T01:11:15.857Z,29.299999
2019-03-19T01:12:14.922Z,29.299999
2019-03-19T01:13:14.961Z,26.9
2019-03-19T01:14:15.057Z,32.900002
2019-03-19T01:15:15.162Z,26
2019-03-19T01:16:15.128Z,22.4
2019-03-19T01:17:15.157Z,30.200001
2019-03-19T01:18:15.200Z,26
2019-03-19T01:19:15.312Z,26.299999
2019-03-19T01:20:15.348Z,24
2019-03-19T01:21:15.406Z,23
2019-03-19T01:22:15.445Z,26.200001
2019-03-19T01:23:15.490Z,29.700001
2019-03-19T01:24:15.574Z,27.1
2019-03-19T01:25:15.631Z,28.299999
2019-03-19T01:26:15.666Z,24.700001
2019-03-19T01:27:15.710Z,28.1
2019-03-19T01:28:15.755Z,30.200001
2019-03-19T01:29:15.833Z,29.9
2019-03-19T01:30:15.883Z,34.5
2019-03-19T01:31:15.939Z,28.6
2019-03-19T01:32:15.980Z,33
2019-03-19T01:33:16.024Z,31.6
2019-03-19T01:34:16.245Z,35.5
2019-03-19T01:35:16.123Z,28.9
2019-03-19T01:36:16.165Z,31.5
2019-03-19T01:37:16.198Z,28.9
2019-03-19T01:38:16.259Z,29.799999
2019-03-19T01:39:16.349Z,26
2019-03-19T01:40:16.392Z,26.6
2019-03-19T01:41:16.426Z,30.1
2019-03-19T01:42:16.457Z,23.6
2019-03-19T01:43:16.502Z,29.299999
2019-03-19T01:44:16.574Z,23.1
2019-03-19T01:45:16.667Z,23.6
2019-03-19T01:46:16.733Z,23.700001
2019-03-19T01:47:16.762Z,26.9
2019-03-19T01:48:16.805Z,27.200001
2019-03-19T01:49:16.825Z,25.4
2019-03-19T01:50:16.921Z,23.200001
2019-03-19T01:51:16.944Z,29.200001
2019-03-19T01:52:16.984Z,26.799999
2019-03-19T01:53:17.005Z,24.700001
2019-03-19T01:54:17.042Z,21.299999
2019-03-19T01:55:17.087Z,24.799999
2019-03-19T01:56:17.099Z,25.4
2019-03-19T01:57:17.131Z,25.4
2019-03-19T01:58:17.167Z,29.4
2019-03-19T01:59:17.198Z,27.200001
2019-03-19T02:00:17.252Z,26.5
2019-03-19T02:01:17.300Z,22.4
2019-03-19T02:02:17.302Z,26.9
2019-03-19T02:03:17.324Z,23.200001
2019-03-19T02:04:17.380Z,26
2019-03-19T02:05:17.504Z,23.700001
2019-03-19T02:06:17.532Z,25.700001
2019-03-19T02:07:17.581Z,25.6
2019-03-19T02:08:17.679Z,31.6
2019-03-19T02:09:17.792Z,32
2019-03-19T02:10:17.914Z,24
2019-03-19T02:11:18.032Z,25.4
2019-03-19T02:12:18.137Z,23.700001
2019-03-19T02:13:18.241Z,26.1
2019-03-19T02:14:18.373Z,27.6
2019-03-19T02:15:18.497Z,27.9
2019-03-19T02:16:18.598Z,25.299999
2019-03-19T02:17:18.709Z,25.1
2019-03-19T02:18:18.812Z,27.200001
2019-03-19T02:19:18.932Z,32.299999
2019-03-19T02:20:19.065Z,32.400002
2019-03-19T02:21:19.153Z,28.799999
2019-03-19T02:22:19.263Z,24.799999
2019-03-19T02:23:19.362Z,34.599998
2019-03-19T02:24:19.472Z,26.200001
2019-03-19T02:25:19.584Z,28.9
2019-03-19T02:26:19.637Z,29.4
2019-03-19T02:27:19.758Z,27.700001
2019-03-19T02:28:19.862Z,25.6
2019-03-19T02:29:19.957Z,28.9
2019-03-19T02:30:20.080Z,32.299999
2019-03-19T02:31:20.183Z,26.1
2019-03-19T02:32:20.286Z,26.700001
2019-03-19T02:33:20.418Z,29.6
2019-03-19T02:34:20.539Z,28.299999
2019-03-19T02:35:20.670Z,32.200001
2019-03-19T02:36:20.792Z,29.700001
2019-03-19T02:37:20.883Z,25.9
2019-03-19T02:38:21.003Z,23
2019-03-19T02:39:21.115Z,24.6
2019-03-19T02:40:21.276Z,32
2019-03-19T02:41:21.209Z,26.4
2019-03-19T02:42:21.317Z,28.799999
2019-03-19T02:43:22.848Z,29.200001
2019-03-19T02:44:22.497Z,25.799999
2019-03-19T02:45:21.641Z,29.700001
2019-03-19T02:46:21.746Z,30.200001
2019-03-19T02:47:21.873Z,23.6
2019-03-19T02:48:21.969Z,28
2019-03-19T02:49:22.076Z,36.5
2019-03-19T02:50:22.216Z,28.799999
2019-03-19T02:51:22.304Z,32.599998
2019-03-19T02:52:22.419Z,30.9
2019-03-19T02:53:22.515Z,29.200001
2019-03-19T02:54:22.655Z,29.1
2019-03-19T02:55:22.790Z,33
2019-03-19T02:56:32.245Z,32.200001
2019-03-19T02:57:23.962Z,30.799999
2019-03-19T02:58:23.053Z,31.9
2019-03-19T02:59:23.213Z,29.299999
2019-03-19T03:00:23.341Z,34.299999
2019-03-19T03:01:23.440Z,33.200001
2019-03-19T03:02:23.577Z,30.799999
2019-03-19T03:03:23.687Z,30.299999
2019-03-19T03:04:23.788Z,39.400002
2019-03-19T03:05:23.950Z,33.299999
2019-03-19T03:06:25.010Z,30.799999
2019-03-19T03:07:24.112Z,33
2019-03-19T03:08:24.230Z,31.4
2019-03-19T03:09:24.330Z,34.5
2019-03-19T03:10:24.491Z,31.1
2019-03-19T03:11:24.429Z,30
2019-03-19T03:12:24.543Z,36.599998
2019-03-19T03:13:24.648Z,39.599998
2019-03-19T03:14:24.759Z,33.299999
2019-03-19T03:15:24.991Z,34.5
2019-03-19T03:16:24.932Z,37.400002
2019-03-19T03:17:25.025Z,33.900002
2019-03-19T03:18:25.130Z,38.700001
2019-03-19T03:19:26.235Z,35.799999
2019-03-19T03:20:25.400Z,38.099998
2019-03-19T03:21:25.328Z,38.400002
2019-03-19T03:22:25.425Z,36.299999
2019-03-19T03:23:25.520Z,37.900002
2019-03-19T03:24:25.632Z,33.599998
2019-03-19T03:25:25.755Z,33
2019-03-19T03:26:25.848Z,32.099998
2019-03-19T03:27:25.958Z,38.5
2019-03-19T03:28:26.070Z,38.700001
2019-03-19T03:29:26.168Z,41.599998
2019-03-19T03:30:26.336Z,40.400002
2019-03-19T03:31:26.268Z,31.700001
2019-03-19T03:32:26.377Z,39.299999
2019-03-19T03:33:26.478Z,30.9
2019-03-19T03:34:26.574Z,29.6
2019-03-19T03:35:26.721Z,32.599998
2019-03-19T03:36:26.820Z,36.400002
2019-03-19T03:37:26.939Z,38.400002
2019-03-19T03:38:27.017Z,38.200001
2019-03-19T03:39:27.104Z,31
2019-03-19T03:40:27.249Z,34.200001
2019-03-19T03:41:27.354Z,37.200001
2019-03-19T03:42:27.449Z,35.5
2019-03-19T03:43:28.543Z,33.099998
2019-03-19T03:44:27.641Z,33.700001
2019-03-19T03:45:27.787Z,40.599998
2019-03-19T03:46:27.884Z,40
2019-03-19T03:47:27.988Z,34.299999
2019-03-19T03:48:28.078Z,37.299999
2019-03-19T03:49:28.184Z,40.900002
2019-03-19T03:50:28.367Z,37.5
2019-03-19T03:51:28.304Z,35
2019-03-19T03:52:28.420Z,40.599998
2019-03-19T03:53:28.527Z,39.700001
2019-03-19T03:54:28.640Z,44.200001
2019-03-19T03:55:31.170Z,40.700001
2019-03-19T03:56:29.870Z,34
2019-03-19T03:57:28.970Z,39.200001
2019-03-19T03:58:29.062Z,36.299999
2019-03-19T03:59:29.169Z,34.099998
2019-03-19T04:00:29.304Z,34.200001
2019-03-19T04:01:29.405Z,37.099998
2019-03-19T04:02:29.504Z,50.599998
2019-03-19T04:03:29.629Z,40.400002
2019-03-19T04:04:29.731Z,43.5
2019-03-19T04:05:29.887Z,48.200001
2019-03-19T04:06:30.018Z,39.700001
2019-03-19T04:07:30.120Z,41.599998
2019-03-19T04:08:30.218Z,45.099998
2019-03-19T04:09:30.330Z,46.599998
2019-03-19T04:10:30.617Z,42.799999
2019-03-19T04:11:30.570Z,44.099998
2019-03-19T04:12:30.675Z,44.799999
2019-03-19T04:13:30.797Z,42.599998
2019-03-19T04:14:30.940Z,46.200001
2019-03-19T04:15:31.074Z,49
2019-03-19T04:16:31.206Z,42.700001
2019-03-19T04:17:31.302Z,41.700001
2019-03-19T04:18:31.399Z,38.599998
2019-03-19T04:19:31.497Z,35.099998
2019-03-19T04:20:31.601Z,36.599998
2019-03-19T04:21:31.743Z,38.700001
2019-03-19T04:22:31.856Z,37.799999
2019-03-19T04:23:31.988Z,45.200001
2019-03-19T04:24:32.084Z,37.5
2019-03-19T04:25:32.185Z,41.599998
2019-03-19T04:26:32.353Z,41.299999
2019-03-19T04:27:32.285Z,37.700001
2019-03-19T04:28:32.383Z,37
2019-03-19T04:29:32.479Z,38.900002
2019-03-19T04:30:32.597Z,39.799999
2019-03-19T04:31:32.757Z,39.799999
2019-03-19T04:32:32.700Z,41.5
2019-03-19T04:33:32.820Z,40.5
2019-03-19T04:34:33.961Z,39.599998
2019-03-19T04:35:33.069Z,40.5
2019-03-19T04:36:33.232Z,43.400002
2019-03-19T04:37:33.160Z,41.700001
2019-03-19T04:38:33.275Z,41.299999
2019-03-19T04:39:33.431Z,42.299999
2019-03-19T04:40:33.522Z,38.099998
2019-03-19T04:41:34.293Z,38.599998
2019-03-19T04:42:33.746Z,34.5
2019-03-19T04:43:33.836Z,37.200001
2019-03-19T04:44:33.943Z,37.799999
2019-03-19T04:45:34.061Z,42.400002
2019-03-19T04:46:34.193Z,40.400002
2019-03-19T04:47:34.293Z,38.299999
2019-03-19T04:48:34.387Z,44.900002
2019-03-19T04:49:34.482Z,38.5
2019-03-19T04:50:34.588Z,38.799999
2019-03-19T04:51:34.714Z,37
2019-03-19T04:52:34.810Z,39.200001
2019-03-19T04:53:34.913Z,34.099998
2019-03-19T04:54:34.998Z,33.299999
2019-03-19T04:55:35.100Z,38.200001
2019-03-19T04:56:35.216Z,41.299999
2019-03-19T04:57:35.316Z,42
2019-03-19T04:58:35.419Z,41.299999
2019-03-19T04:59:35.521Z,41
2019-03-19T05:00:35.626Z,44.400002
2019-03-19T05:01:35.747Z,50.099998
2019-03-19T05:02:35.889Z,46.5
2019-03-19T05:03:35.984Z,44.700001
2019-03-19T05:04:36.078Z,39.599998
2019-03-19T05:05:36.201Z,39.299999
2019-03-19T05:06:36.346Z,45.700001
2019-03-19T05:07:36.449Z,38.799999
2019-03-19T05:08:36.571Z,44.400002
2019-03-19T05:09:37.559Z,45
2019-03-19T05:10:36.847Z,43.099998
2019-03-19T05:11:36.986Z,49.599998
2019-03-19T05:12:37.104Z,46.5
2019-03-19T05:13:37.207Z,42.099998
2019-03-19T05:14:37.328Z,40.900002
2019-03-19T05:15:37.459Z,43.299999
2019-03-19T05:16:37.577Z,43.799999
2019-03-19T05:17:37.674Z,42.700001
2019-03-19T05:18:37.774Z,40.799999
2019-03-19T05:19:37.875Z,42.299999
2019-03-19T05:20:37.977Z,40.900002
2019-03-19T05:21:38.102Z,41.400002
2019-03-19T05:22:38.224Z,39.700001
2019-03-19T05:23:38.322Z,44.099998
2019-03-19T05:24:38.434Z,39.099998
2019-03-19T05:25:38.543Z,42.700001
2019-03-19T05:26:38.711Z,44
2019-03-19T05:27:38.600Z,42.400002
2019-03-19T05:28:38.713Z,41.099998
2019-03-19T05:29:38.812Z,46.200001
2019-03-19T05:30:38.912Z,41.900002
2019-03-19T05:31:38.990Z,49
2019-03-19T05:32:39.016Z,42.200001
2019-03-19T05:33:39.092Z,41.299999
2019-03-19T05:34:39.179Z,38.700001
2019-03-19T05:35:39.217Z,43.5
2019-03-19T05:36:39.366Z,41.599998
2019-03-19T05:37:39.404Z,41.400002
2019-03-19T05:38:40.445Z,42.299999
2019-03-19T05:39:39.473Z,45.099998
2019-03-19T05:40:39.513Z,39.799999
2019-03-19T05:41:39.604Z,41.799999
2019-03-19T05:42:39.654Z,47
2019-03-19T05:43:39.685Z,37
2019-03-19T05:44:39.735Z,39
2019-03-19T05:45:39.764Z,47.400002
2019-03-19T05:46:39.871Z,47.5
2019-03-19T05:47:40.584Z,36.700001
2019-03-19T05:48:41.100Z,41.900002
2019-03-19T05:49:40.131Z,38.299999
2019-03-19T05:50:40.179Z,40.099998
2019-03-19T05:51:40.288Z,46.299999
2019-03-19T05:52:40.374Z,36.700001
2019-03-19T05:53:40.418Z,44.700001
2019-03-19T05:54:40.476Z,40.299999
2019-03-19T05:55:40.543Z,43.700001
2019-03-19T05:56:40.595Z,39.099998
2019-03-19T05:57:48.675Z,33.5
2019-03-19T05:58:41.669Z,45.299999
2019-03-19T05:59:40.698Z,38
2019-03-19T06:00:40.739Z,42.599998
2019-03-19T06:01:40.832Z,40.700001
2019-03-19T06:02:40.958Z,41.799999
2019-03-19T06:03:40.999Z,38
2019-03-19T06:04:41.045Z,39
2019-03-19T06:05:41.417Z,41.900002
2019-03-19T06:06:41.180Z,40
2019-03-19T06:07:41.223Z,40.799999
2019-03-19T06:08:41.269Z,37.700001
2019-03-19T06:09:41.318Z,40.299999
2019-03-19T06:10:41.367Z,39.799999
2019-03-19T06:11:41.580Z,36.200001
2019-03-19T06:12:41.498Z,39.099998
2019-03-19T06:13:41.543Z,40
2019-03-19T06:14:41.622Z,38.799999
2019-03-19T06:15:41.696Z,37.200001
2019-03-19T06:16:41.789Z,42.099998
2019-03-19T06:17:41.832Z,35.799999
2019-03-19T06:18:41.846Z,41
2019-03-19T06:19:41.888Z,41.299999
2019-03-19T06:20:41.936Z,40.5
2019-03-19T06:21:42.029Z,38
2019-03-19T06:22:42.114Z,41.200001
2019-03-19T06:23:42.143Z,37.799999
2019-03-19T06:24:42.197Z,37.900002
2019-03-19T06:25:42.251Z,39.900002
2019-03-19T06:26:42.330Z,43.799999
2019-03-19T06:27:42.403Z,38.5
2019-03-19T06:28:42.478Z,49.799999
2019-03-19T06:29:42.525Z,43.400002
2019-03-19T06:30:42.562Z,39
2019-03-19T06:31:42.647Z,35.5
2019-03-19T06:32:42.709Z,40.799999
2019-03-19T06:33:42.804Z,40.599998
2019-03-19T06:34:42.847Z,45.700001
2019-03-19T06:35:42.888Z,40.400002
2019-03-19T06:36:42.962Z,42.700001
2019-03-19T06:37:43.045Z,40.299999
2019-03-19T06:38:43.090Z,36.299999
2019-03-19T06:39:43.138Z,43.599998
2019-03-19T06:40:43.191Z,43.599998
2019-03-19T06:41:43.236Z,43.299999
2019-03-19T06:42:43.308Z,41.200001
2019-03-19T06:43:43.349Z,43.400002
2019-03-19T06:44:43.377Z,38.099998
2019-03-19T06:45:43.428Z,40
2019-03-19T06:46:43.480Z,40.400002
2019-03-19T06:47:43.539Z,43.299999
2019-03-19T06:48:43.588Z,42.200001
2019-03-19T06:49:43.664Z,41.799999
2019-03-19T06:50:45.330Z,40.700001
2019-03-19T06:51:44.710Z,45.700001
2019-03-19T06:52:43.779Z,43.099998
2019-03-19T06:53:43.821Z,43.400002
2019-03-19T06:54:43.863Z,40.900002
2019-03-19T06:55:43.910Z,36.599998
2019-03-19T06:56:44.030Z,36.400002
2019-03-19T06:57:44.065Z,39.200001
2019-03-19T06:58:44.112Z,33.400002
2019-03-19T06:59:44.154Z,35.900002
2019-03-19T07:00:44.198Z,42
2019-03-19T07:01:44.237Z,43.700001
2019-03-19T07:02:44.321Z,37.299999
2019-03-19T07:03:44.411Z,39.299999
2019-03-19T07:04:44.455Z,40.200001
2019-03-19T07:05:44.513Z,36.900002
2019-03-19T07:06:45.558Z,36.5
2019-03-19T07:07:44.636Z,43.599998
2019-03-19T07:08:44.695Z,41.299999
2019-03-19T07:09:44.725Z,37
2019-03-19T07:10:44.769Z,37.099998
2019-03-19T07:11:44.842Z,38.400002
2019-03-19T07:12:44.928Z,40.099998
2019-03-19T07:13:44.975Z,36
2019-03-19T07:14:45.033Z,32.400002
2019-03-19T07:15:45.079Z,39.900002
2019-03-19T07:16:45.140Z,35.599998
2019-03-19T07:17:45.250Z,38.400002
2019-03-19T07:18:45.272Z,36.799999
2019-03-19T07:19:45.353Z,30.1
2019-03-19T07:20:45.404Z,33.799999
2019-03-19T07:21:45.446Z,42.700001
2019-03-19T07:22:45.590Z,31.200001
2019-03-19T07:23:45.645Z,33.700001
2019-03-19T07:24:47.999Z,31.6
2019-03-19T07:25:46.727Z,35.5
2019-03-19T07:26:45.771Z,32.099998
2019-03-19T07:27:45.883Z,35.200001
2019-03-19T07:28:45.925Z,33.299999
2019-03-19T07:29:45.977Z,33.799999
2019-03-19T07:30:46.005Z,36.799999
2019-03-19T07:31:46.058Z,31
2019-03-19T07:32:46.159Z,36.5
2019-03-19T07:33:46.202Z,31.799999
2019-03-19T07:34:46.254Z,33.400002
2019-03-19T07:35:47.282Z,30.299999
2019-03-19T07:36:46.325Z,29.299999
2019-03-19T07:37:46.433Z,34.799999
2019-03-19T07:38:46.461Z,31.299999
2019-03-19T07:39:46.508Z,28.9
2019-03-19T07:40:46.547Z,31.4
2019-03-19T07:41:46.586Z,34.5
2019-03-19T07:42:46.687Z,31.6
2019-03-19T07:43:46.729Z,34
2019-03-19T07:44:46.776Z,28.799999
2019-03-19T07:45:46.870Z,27.5
2019-03-19T07:46:46.902Z,31.700001
2019-03-19T07:47:47.001Z,34
2019-03-19T07:48:47.038Z,36
2019-03-19T07:49:47.104Z,30.299999
2019-03-19T07:50:47.144Z,32.299999
2019-03-19T07:51:47.214Z,30.9
2019-03-19T07:52:47.264Z,32.5
2019-03-19T07:53:47.318Z,32.700001
2019-03-19T07:54:47.360Z,32.799999
2019-03-19T07:55:47.404Z,34.700001
2019-03-19T07:56:47.451Z,31.700001
2019-03-19T07:57:47.543Z,30.200001
2019-03-19T07:58:47.587Z,28.799999
2019-03-19T07:59:47.662Z,32.400002
2019-03-19T08:00:47.705Z,29.700001
2019-03-19T08:01:47.756Z,31.1
2019-03-19T08:02:47.790Z,32.5
2019-03-19T08:03:47.873Z,31.799999
2019-03-19T08:04:47.924Z,33.099998
2019-03-19T08:05:47.970Z,27.700001
2019-03-19T08:06:48.013Z,37.700001
2019-03-19T08:07:48.074Z,31.1
2019-03-19T08:08:48.192Z,30.799999
2019-03-19T08:09:48.225Z,30.700001
2019-03-19T08:10:48.287Z,31.1
2019-03-19T08:11:48.329Z,29.5
2019-03-19T08:12:48.909Z,31.1
2019-03-19T08:13:48.527Z,28.9
2019-03-19T08:14:48.561Z,27.4
2019-03-19T08:15:48.607Z,29.9
2019-03-19T08:16:48.688Z,31.299999
2019-03-19T08:17:48.730Z,28.799999
2019-03-19T08:18:48.796Z,28.1
2019-03-19T08:19:48.857Z,28
2019-03-19T08:20:48.921Z,30.5
2019-03-19T08:21:48.986Z,28.799999
2019-03-19T08:22:49.027Z,31.1
2019-03-19T08:23:49.124Z,29.6
2019-03-19T08:24:49.210Z,26.5
2019-03-19T08:25:49.261Z,28.5
2019-03-19T08:26:49.307Z,26.200001
2019-03-19T08:27:49.360Z,23.799999
2019-03-19T08:28:55.197Z,28.700001
2019-03-19T08:29:50.464Z,27.5
2019-03-19T08:30:49.502Z,23.5
2019-03-19T08:31:49.538Z,23.6
2019-03-19T08:32:49.666Z,24.799999
2019-03-19T08:33:49.735Z,25.799999
2019-03-19T08:34:50.764Z,23.799999
2019-03-19T08:35:49.850Z,23.200001
2019-03-19T08:36:49.911Z,25.5
2019-03-19T08:37:50.000Z,24.200001
2019-03-19T08:38:50.099Z,26.799999
2019-03-19T08:39:50.178Z,24.6
2019-03-19T08:40:51.085Z,28
2019-03-19T08:41:50.275Z,22.1
2019-03-19T08:42:50.312Z,26.6
2019-03-19T08:43:52.488Z,24.799999
2019-03-19T08:44:51.410Z,28.4
2019-03-19T08:45:50.451Z,25.299999
2019-03-19T08:46:50.522Z,24.700001
2019-03-19T08:47:50.581Z,22.5
2019-03-19T08:48:50.640Z,25.6
2019-03-19T08:49:50.683Z,23.799999
2019-03-19T08:50:50.748Z,20.799999
2019-03-19T08:51:50.841Z,22.6
2019-03-19T08:52:50.896Z,25
2019-03-19T08:53:50.973Z,24.1
2019-03-19T08:54:51.135Z,24.299999
2019-03-19T08:55:51.169Z,27.700001
2019-03-19T08:56:51.220Z,22.6
2019-03-19T08:57:51.286Z,23.4
2019-03-19T08:58:51.383Z,26.5
2019-03-19T08:59:51.441Z,28.5
2019-03-19T09:00:51.514Z,23.700001
2019-03-19T09:01:51.551Z,23.799999
2019-03-19T09:02:51.609Z,24.5
2019-03-19T09:03:51.716Z,21.799999
2019-03-19T09:04:51.760Z,24.1
2019-03-19T09:05:51.800Z,23.6
2019-03-19T09:06:51.832Z,22.4
2019-03-19T09:07:51.896Z,22.700001
2019-03-19T09:08:52.034Z,23.6
2019-03-19T09:09:52.110Z,24.6
2019-03-19T09:10:52.170Z,21.200001
2019-03-19T09:11:52.228Z,23.200001
2019-03-19T09:12:52.866Z,20.5
2019-03-19T09:13:52.470Z,19.799999
2019-03-19T09:14:53.497Z,30.4
2019-03-19T09:15:52.530Z,21.200001
2019-03-19T09:16:52.602Z,21.200001
2019-03-19T09:17:52.643Z,23.700001
2019-03-19T09:18:52.737Z,16.700001
2019-03-19T09:19:52.772Z,19.799999
2019-03-19T09:20:54.070Z,20.200001
2019-03-19T09:21:53.846Z,23.6
2019-03-19T09:22:52.899Z,19.299999
2019-03-19T09:23:53.010Z,23.799999
2019-03-19T09:24:53.050Z,20.299999
2019-03-19T09:25:53.094Z,19.1
2019-03-19T09:26:53.140Z,21.299999
2019-03-19T09:27:53.201Z,19.6
2019-03-19T09:28:53.294Z,17.5
2019-03-19T09:29:53.334Z,18.299999
2019-03-19T09:30:53.432Z,17
2019-03-19T09:31:53.491Z,18
2019-03-19T09:32:53.538Z,17.9
2019-03-19T09:33:53.635Z,20.1
2019-03-19T09:34:53.690Z,17
2019-03-19T09:35:53.736Z,18.299999
2019-03-19T09:36:57.477Z,19.299999
2019-03-19T09:37:58.564Z,18.4
2019-03-19T09:38:54.978Z,20.5
2019-03-19T09:39:54.012Z,16.700001
2019-03-19T09:40:54.050Z,18.6
2019-03-19T09:41:54.104Z,18.4
2019-03-19T09:42:54.158Z,18.5
2019-03-19T09:43:54.217Z,19.799999
2019-03-19T09:44:58.323Z,19.9
2019-03-19T09:45:55.269Z,17.799999
2019-03-19T09:46:54.303Z,15.6
2019-03-19T09:47:54.345Z,16.5
2019-03-19T09:48:54.459Z,17.5
2019-03-19T09:49:54.508Z,16.9
2019-03-19T09:50:54.546Z,18.200001
2019-03-19T09:51:54.593Z,19.4
2019-03-19T09:52:54.630Z,14.7
2019-03-19T09:53:54.725Z,14.3
2019-03-19T09:54:54.785Z,14.1
2019-03-19T09:55:54.851Z,15.1
2019-03-19T09:56:54.886Z,15.8
2019-03-19T09:57:54.928Z,16.4
2019-03-19T09:58:54.999Z,13.7
2019-03-19T09:59:55.066Z,13.7
2019-03-19T10:00:55.118Z,15.3
2019-03-19T10:01:55.183Z,13.5
2019-03-19T10:02:55.231Z,15.4
2019-03-19T10:03:55.293Z,13.7
2019-03-19T10:04:55.361Z,14
2019-03-19T10:05:55.404Z,13.2
2019-03-19T10:07:05.437Z,12.9
2019-03-19T10:07:56.482Z,12.3
2019-03-19T10:08:55.538Z,13.4
2019-03-19T10:09:55.607Z,13.8
2019-03-19T10:10:55.644Z,13.4
2019-03-19T10:11:55.722Z,12.3
2019-03-19T10:12:56.736Z,14.3
2019-03-19T10:13:55.773Z,15.9
2019-03-19T10:14:55.842Z,13.1
2019-03-19T10:15:55.916Z,16
2019-03-19T10:16:55.963Z,16.299999
2019-03-19T10:17:56.012Z,16.1
2019-03-19T10:18:56.055Z,16.299999
2019-03-19T10:19:56.137Z,13.2
2019-03-19T10:20:56.177Z,11.3
2019-03-19T10:21:56.235Z,16.9
2019-03-19T10:22:56.270Z,10.6
2019-03-19T10:23:56.319Z,14.3
2019-03-19T10:24:56.393Z,15.1
2019-03-19T10:25:56.454Z,14
2019-03-19T10:26:56.513Z,12.7
2019-03-19T10:27:56.564Z,12.3
2019-03-19T10:28:56.637Z,9.5
2019-03-19T10:29:56.710Z,10.4
2019-03-19T10:30:56.747Z,12.1
2019-03-19T10:31:56.794Z,13.6
2019-03-19T10:32:56.856Z,14.4
2019-03-19T10:33:56.913Z,12.7
2019-03-19T10:34:57.045Z,13.5
2019-03-19T10:35:57.098Z,11.2
2019-03-19T10:36:57.191Z,15.6
2019-03-19T10:37:58.295Z,15.2
2019-03-19T10:38:57.355Z,15
2019-03-19T10:39:57.448Z,15.8
2019-03-19T10:40:57.488Z,16.1
2019-03-19T10:41:57.526Z,13.7
2019-03-19T10:42:57.633Z,13.3
2019-03-19T10:43:57.696Z,11.4
2019-03-19T10:44:57.775Z,10
2019-03-19T10:45:57.831Z,10.9
2019-03-19T10:46:57.969Z,8.4
2019-03-19T10:47:58.003Z,7.5
2019-03-19T10:48:58.072Z,11.3
2019-03-19T10:49:58.193Z,9.1
2019-03-19T10:50:58.248Z,11
2019-03-19T10:51:58.390Z,8.2
2019-03-19T10:52:58.391Z,9.9
2019-03-19T10:53:58.444Z,8
2019-03-19T10:54:58.556Z,8.2
2019-03-19T10:55:58.620Z,9.1
2019-03-19T10:56:58.673Z,12
2019-03-19T10:57:58.780Z,8.2
2019-03-19T10:58:58.826Z,10
2019-03-19T10:59:59.147Z,10.6
2019-03-19T11:00:59.019Z,7.8
2019-03-19T11:01:59.056Z,8.7
2019-03-19T11:02:59.183Z,10.5
2019-03-19T11:03:59.257Z,10.5
2019-03-19T11:04:59.344Z,9.3
2019-03-19T11:05:59.291Z,10.6
2019-03-19T11:06:59.380Z,7.8
2019-03-19T11:07:59.419Z,9.1
2019-03-19T11:08:59.534Z,9.4
2019-03-19T11:09:59.637Z,10.6
2019-03-19T11:10:59.682Z,8.8
2019-03-19T11:11:59.740Z,11
2019-03-19T11:12:59.823Z,9.2
2019-03-19T11:13:59.930Z,10.2
2019-03-19T11:15:00.027Z,10.2
2019-03-19T11:16:00.078Z,10.7
2019-03-19T11:17:00.134Z,8.9
2019-03-19T11:18:00.210Z,10.7
2019-03-19T11:19:00.278Z,11.3
2019-03-19T11:20:00.410Z,7.4
2019-03-19T11:21:00.465Z,10.7
2019-03-19T11:22:00.506Z,10.5
2019-03-19T11:23:00.570Z,9
2019-03-19T11:24:00.645Z,7.6
2019-03-19T11:25:00.751Z,10.1
2019-03-19T11:26:00.795Z,9
2019-03-19T11:27:00.866Z,10.4
2019-03-19T11:28:01.022Z,8.1
2019-03-19T11:29:00.915Z,8.2
2019-03-19T11:30:01.011Z,8.9
2019-03-19T11:31:01.032Z,9.5
2019-03-19T11:32:01.064Z,6.6
2019-03-19T11:33:01.105Z,8.5
2019-03-19T11:34:01.213Z,10.1
2019-03-19T11:35:01.303Z,8.9
2019-03-19T11:36:01.396Z,7.9
2019-03-19T11:37:01.402Z,7.5
2019-03-19T11:38:01.463Z,6.5
2019-03-19T11:39:01.549Z,8.6
2019-03-19T11:40:01.619Z,10.2
2019-03-19T11:41:01.699Z,8
2019-03-19T11:42:01.749Z,6.6
2019-03-19T11:43:01.822Z,8.5
2019-03-19T11:44:01.914Z,9.2
2019-03-19T11:45:02.009Z,9.1
2019-03-19T11:46:02.090Z,7.3
2019-03-19T11:47:02.140Z,5.9
2019-03-19T11:48:02.176Z,7.5
2019-03-19T11:49:02.223Z,6.9
2019-03-19T11:50:02.282Z,7.6
2019-03-19T11:51:02.359Z,8.7
2019-03-19T11:52:02.423Z,9.9
2019-03-19T11:53:02.538Z,8.3
2019-03-19T11:54:02.622Z,10.3
2019-03-19T11:55:02.709Z,8.8
2019-03-19T11:56:02.862Z,9.9
2019-03-19T11:57:02.763Z,7.3
2019-03-19T11:58:02.833Z,7.4
2019-03-19T11:59:02.894Z,7.6
2019-03-19T12:00:11.020Z,6.9
2019-03-19T12:01:04.020Z,8.3
2019-03-19T12:02:03.071Z,8.1
2019-03-19T12:03:12.608Z,9
2019-03-19T12:04:04.199Z,9
2019-03-19T12:05:03.256Z,8.6
2019-03-19T12:06:03.313Z,8.9
2019-03-19T12:07:03.426Z,8.2
2019-03-19T12:08:03.491Z,10.1
2019-03-19T12:09:03.535Z,9.9
2019-03-19T12:10:03.608Z,8.8
2019-03-19T12:11:03.753Z,9.6
2019-03-19T12:12:03.831Z,7.7
2019-03-19T12:13:03.924Z,8.2
2019-03-19T12:14:04.016Z,8.8
2019-03-19T12:15:04.143Z,9.1
2019-03-19T12:16:04.211Z,8.5
2019-03-19T12:17:04.274Z,10.1
2019-03-19T12:18:04.323Z,6.2
2019-03-19T12:19:04.415Z,7.8
2019-03-19T12:20:04.509Z,8.9
2019-03-19T12:21:04.892Z,8.3
2019-03-19T12:22:04.648Z,9.4
2019-03-19T12:23:04.703Z,7.6
2019-03-19T12:24:04.859Z,10
2019-03-19T12:25:04.915Z,8.4